sensor_id;sensor_type;location;lat;lon;timestamp;temperature;humidity
7502;DHT22;3792;47.740;7.606;2023-06-10T00:00:43;20.80;99.90
7502;DHT22;3792;47.740;7.606;2023-06-10T00:03:11;20.80;99.90
7502;DHT22;3792;47.740;7.606;2023-06-10T00:05:41;20.80;99.90
7502;DHT22;3792;47.740;7.606;2023-06-10T00:08:08;20.90;99.90
7502;DHT22;3792;47.740;7.606;2023-06-10T00:10:37;20.90;99.90
7502;DHT22;3792;47.740;7.606;2023-06-10T00:13:05;20.90;99.90
7502;DHT22;3792;47.740;7.606;2023-06-10T00:15:34;21.00;99.90
7502;DHT22;3792;47.740;7.606;2023-06-10T00:18:01;21.00;99.90
7502;DHT22;3792;47.740;7.606;2023-06-10T00:20:29;21.00;99.90
7502;DHT22;3792;47.740;7.606;2023-06-10T00:22:58;21.00;99.90
7502;DHT22;3792;47.740;7.606;2023-06-10T00:25:27;20.90;99.90
7502;DHT22;3792;47.740;7.606;2023-06-10T00:27:54;20.90;99.90
7502;DHT22;3792;47.740;7.606;2023-06-10T00:30:21;20.80;99.90
7502;DHT22;3792;47.740;7.606;2023-06-10T00:32:49;20.70;99.90
7502;DHT22;3792;47.740;7.606;2023-06-10T00:35:16;20.70;99.90
7502;DHT22;3792;47.740;7.606;2023-06-10T00:37:43;20.70;99.90
7502;DHT22;3792;47.740;7.606;2023-06-10T00:40:12;20.60;99.90
7502;DHT22;3792;47.740;7.606;2023-06-10T00:42:39;20.50;99.90
7502;DHT22;3792;47.740;7.606;2023-06-10T00:45:06;20.50;99.90
7502;DHT22;3792;47.740;7.606;2023-06-10T00:47:34;20.40;99.90
7502;DHT22;3792;47.740;7.606;2023-06-10T00:50:02;20.40;99.90
7502;DHT22;3792;47.740;7.606;2023-06-10T00:52:29;20.40;99.90
7502;DHT22;3792;47.740;7.606;2023-06-10T00:54:56;20.30;99.90
7502;DHT22;3792;47.740;7.606;2023-06-10T00:57:26;20.30;99.90
7502;DHT22;3792;47.740;7.606;2023-06-10T00:59:53;20.30;99.90
7502;DHT22;3792;47.740;7.606;2023-06-10T01:02:21;20.30;99.90
7502;DHT22;3792;47.740;7.606;2023-06-10T01:04:48;20.30;99.90
7502;DHT22;3792;47.740;7.606;2023-06-10T01:07:23;20.00;99.90
7502;DHT22;3792;47.740;7.606;2023-06-10T01:09:54;19.80;99.90
7502;DHT22;3792;47.740;7.606;2023-06-10T01:12:30;19.70;99.90
7502;DHT22;3792;47.740;7.606;2023-06-10T01:14:59;19.70;99.90
7502;DHT22;3792;47.740;7.606;2023-06-10T01:17:26;19.60;99.90
7502;DHT22;3792;47.740;7.606;2023-06-10T01:19:54;19.60;99.90
7502;DHT22;3792;47.740;7.606;2023-06-10T01:22:24;19.60;99.90
7502;DHT22;3792;47.740;7.606;2023-06-10T01:24:52;19.70;99.90
7502;DHT22;3792;47.740;7.606;2023-06-10T01:27:21;19.80;99.90
7502;DHT22;3792;47.740;7.606;2023-06-10T01:29:54;19.80;99.90
7502;DHT22;3792;47.740;7.606;2023-06-10T01:32:26;19.90;99.90
7502;DHT22;3792;47.740;7.606;2023-06-10T01:34:56;19.90;99.90
7502;DHT22;3792;47.740;7.606;2023-06-10T01:37:26;19.90;99.90
7502;DHT22;3792;47.740;7.606;2023-06-10T01:39:56;19.90;99.90
7502;DHT22;3792;47.740;7.606;2023-06-10T01:42:24;19.90;99.90
7502;DHT22;3792;47.740;7.606;2023-06-10T01:44:51;20.00;99.90
7502;DHT22;3792;47.740;7.606;2023-06-10T01:47:18;20.00;99.90
7502;DHT22;3792;47.740;7.606;2023-06-10T01:49:45;20.00;99.90
7502;DHT22;3792;47.740;7.606;2023-06-10T01:52:12;20.10;99.90
7502;DHT22;3792;47.740;7.606;2023-06-10T01:54:41;20.00;99.90
7502;DHT22;3792;47.740;7.606;2023-06-10T01:57:08;20.00;99.90
7502;DHT22;3792;47.740;7.606;2023-06-10T01:59:35;20.00;99.90
7502;DHT22;3792;47.740;7.606;2023-06-10T02:02:04;20.00;99.90
7502;DHT22;3792;47.740;7.606;2023-06-10T02:04:31;19.70;99.90
7502;DHT22;3792;47.740;7.606;2023-06-10T02:07:03;19.60;99.90
7502;DHT22;3792;47.740;7.606;2023-06-10T02:09:31;19.40;99.90
7502;DHT22;3792;47.740;7.606;2023-06-10T02:12:02;19.20;99.90
7502;DHT22;3792;47.740;7.606;2023-06-10T02:14:29;19.20;99.90
7502;DHT22;3792;47.740;7.606;2023-06-10T02:16:58;19.20;99.90
7502;DHT22;3792;47.740;7.606;2023-06-10T02:19:26;19.10;99.90
7502;DHT22;3792;47.740;7.606;2023-06-10T02:21:53;18.90;99.90
7502;DHT22;3792;47.740;7.606;2023-06-10T02:24:21;18.90;99.90
7502;DHT22;3792;47.740;7.606;2023-06-10T02:26:48;18.90;99.90
7502;DHT22;3792;47.740;7.606;2023-06-10T02:29:18;18.80;99.90
7502;DHT22;3792;47.740;7.606;2023-06-10T02:31:45;18.70;99.90
7502;DHT22;3792;47.740;7.606;2023-06-10T02:34:13;18.50;99.90
7502;DHT22;3792;47.740;7.606;2023-06-10T02:36:41;18.50;99.90
7502;DHT22;3792;47.740;7.606;2023-06-10T02:39:08;18.40;99.90
7502;DHT22;3792;47.740;7.606;2023-06-10T02:41:35;18.40;99.90
7502;DHT22;3792;47.740;7.606;2023-06-10T02:44:05;18.50;99.90
7502;DHT22;3792;47.740;7.606;2023-06-10T02:46:33;18.60;99.90
7502;DHT22;3792;47.740;7.606;2023-06-10T02:49:00;18.60;99.90
7502;DHT22;3792;47.740;7.606;2023-06-10T02:51:27;18.60;99.90
7502;DHT22;3792;47.740;7.606;2023-06-10T02:53:54;18.60;99.90
7502;DHT22;3792;47.740;7.606;2023-06-10T02:56:21;18.60;99.90
7502;DHT22;3792;47.740;7.606;2023-06-10T02:58:48;18.50;99.90
7502;DHT22;3792;47.740;7.606;2023-06-10T03:01:17;18.30;99.90
7502;DHT22;3792;47.740;7.606;2023-06-10T03:03:46;18.40;99.90
7502;DHT22;3792;47.740;7.606;2023-06-10T03:06:13;18.50;99.90
7502;DHT22;3792;47.740;7.606;2023-06-10T03:08:40;18.60;99.90
7502;DHT22;3792;47.740;7.606;2023-06-10T03:11:07;18.70;99.90
7502;DHT22;3792;47.740;7.606;2023-06-10T03:13:35;18.70;99.90
7502;DHT22;3792;47.740;7.606;2023-06-10T03:16:02;18.70;99.90
7502;DHT22;3792;47.740;7.606;2023-06-10T03:18:30;18.80;99.90
7502;DHT22;3792;47.740;7.606;2023-06-10T03:20:58;18.80;99.90
7502;DHT22;3792;47.740;7.606;2023-06-10T03:23:25;18.90;99.90
7502;DHT22;3792;47.740;7.606;2023-06-10T03:25:52;18.90;99.90
7502;DHT22;3792;47.740;7.606;2023-06-10T03:28:20;18.80;99.90
7502;DHT22;3792;47.740;7.606;2023-06-10T03:30:48;18.80;99.90
7502;DHT22;3792;47.740;7.606;2023-06-10T03:33:15;18.50;99.90
7502;DHT22;3792;47.740;7.606;2023-06-10T03:35:42;18.40;99.90
7502;DHT22;3792;47.740;7.606;2023-06-10T03:38:10;18.40;99.90
7502;DHT22;3792;47.740;7.606;2023-06-10T03:40:37;18.50;99.90
7502;DHT22;3792;47.740;7.606;2023-06-10T03:43:04;18.50;99.90
7502;DHT22;3792;47.740;7.606;2023-06-10T03:45:31;18.50;99.90
7502;DHT22;3792;47.740;7.606;2023-06-10T03:47:58;18.40;99.90
7502;DHT22;3792;47.740;7.606;2023-06-10T03:50:26;18.20;99.90
7502;DHT22;3792;47.740;7.606;2023-06-10T03:52:53;18.10;99.90
7502;DHT22;3792;47.740;7.606;2023-06-10T03:55:21;18.20;99.90
7502;DHT22;3792;47.740;7.606;2023-06-10T03:57:49;18.30;99.90
7502;DHT22;3792;47.740;7.606;2023-06-10T04:00:17;18.40;99.90
7502;DHT22;3792;47.740;7.606;2023-06-10T04:02:44;18.40;99.90
7502;DHT22;3792;47.740;7.606;2023-06-10T04:05:14;18.60;99.90
7502;DHT22;3792;47.740;7.606;2023-06-10T04:07:42;18.70;99.90
7502;DHT22;3792;47.740;7.606;2023-06-10T04:10:10;18.80;99.90
7502;DHT22;3792;47.740;7.606;2023-06-10T04:12:39;18.90;99.90
7502;DHT22;3792;47.740;7.606;2023-06-10T04:15:07;19.00;99.90
7502;DHT22;3792;47.740;7.606;2023-06-10T04:17:34;19.10;99.90
7502;DHT22;3792;47.740;7.606;2023-06-10T04:20:01;19.00;99.90
7502;DHT22;3792;47.740;7.606;2023-06-10T04:22:29;19.00;99.90
7502;DHT22;3792;47.740;7.606;2023-06-10T04:24:56;18.90;99.90
7502;DHT22;3792;47.740;7.606;2023-06-10T04:27:24;18.90;99.90
7502;DHT22;3792;47.740;7.606;2023-06-10T04:29:53;18.80;99.90
7502;DHT22;3792;47.740;7.606;2023-06-10T04:32:20;18.90;99.90
7502;DHT22;3792;47.740;7.606;2023-06-10T04:34:47;18.80;99.90
7502;DHT22;3792;47.740;7.606;2023-06-10T04:37:14;18.80;99.90
7502;DHT22;3792;47.740;7.606;2023-06-10T04:39:41;18.60;99.90
7502;DHT22;3792;47.740;7.606;2023-06-10T04:42:08;18.50;99.90
7502;DHT22;3792;47.740;7.606;2023-06-10T04:44:35;18.50;99.90
7502;DHT22;3792;47.740;7.606;2023-06-10T04:47:04;18.50;99.90
7502;DHT22;3792;47.740;7.606;2023-06-10T04:49:33;18.70;99.90
7502;DHT22;3792;47.740;7.606;2023-06-10T04:52:01;18.90;99.90
7502;DHT22;3792;47.740;7.606;2023-06-10T04:54:29;19.00;99.90
7502;DHT22;3792;47.740;7.606;2023-06-10T04:56:58;19.10;99.90
7502;DHT22;3792;47.740;7.606;2023-06-10T04:59:26;19.10;99.90
7502;DHT22;3792;47.740;7.606;2023-06-10T05:01:53;19.20;99.90
7502;DHT22;3792;47.740;7.606;2023-06-10T05:04:22;19.30;99.90
7502;DHT22;3792;47.740;7.606;2023-06-10T05:06:49;19.30;99.90
7502;DHT22;3792;47.740;7.606;2023-06-10T05:09:16;19.40;99.90
7502;DHT22;3792;47.740;7.606;2023-06-10T05:11:43;19.40;99.90
7502;DHT22;3792;47.740;7.606;2023-06-10T05:14:11;19.40;99.90
7502;DHT22;3792;47.740;7.606;2023-06-10T05:16:38;19.50;99.90
7502;DHT22;3792;47.740;7.606;2023-06-10T05:19:06;19.60;99.90
7502;DHT22;3792;47.740;7.606;2023-06-10T05:21:34;19.60;99.90
7502;DHT22;3792;47.740;7.606;2023-06-10T05:24:01;19.80;99.90
7502;DHT22;3792;47.740;7.606;2023-06-10T05:26:28;19.90;99.90
7502;DHT22;3792;47.740;7.606;2023-06-10T05:28:57;20.00;99.90
7502;DHT22;3792;47.740;7.606;2023-06-10T05:31:24;20.10;99.90
7502;DHT22;3792;47.740;7.606;2023-06-10T05:33:51;20.20;99.90
7502;DHT22;3792;47.740;7.606;2023-06-10T05:36:18;20.30;99.90
7502;DHT22;3792;47.740;7.606;2023-06-10T05:38:47;20.30;99.90
7502;DHT22;3792;47.740;7.606;2023-06-10T05:41:14;20.40;99.90
7502;DHT22;3792;47.740;7.606;2023-06-10T05:43:41;20.50;99.90
7502;DHT22;3792;47.740;7.606;2023-06-10T05:46:09;20.60;99.90
7502;DHT22;3792;47.740;7.606;2023-06-10T05:48:36;20.70;99.90
7502;DHT22;3792;47.740;7.606;2023-06-10T05:51:03;20.80;99.90
7502;DHT22;3792;47.740;7.606;2023-06-10T05:53:31;20.90;99.90
7502;DHT22;3792;47.740;7.606;2023-06-10T05:55:59;21.00;99.90
7502;DHT22;3792;47.740;7.606;2023-06-10T05:58:27;21.10;99.90
7502;DHT22;3792;47.740;7.606;2023-06-10T06:00:54;21.20;99.90
7502;DHT22;3792;47.740;7.606;2023-06-10T06:03:21;21.20;99.90
7502;DHT22;3792;47.740;7.606;2023-06-10T06:05:48;21.10;99.90
7502;DHT22;3792;47.740;7.606;2023-06-10T06:08:15;21.10;99.90
7502;DHT22;3792;47.740;7.606;2023-06-10T06:10:44;21.10;99.90
7502;DHT22;3792;47.740;7.606;2023-06-10T06:13:12;21.00;99.90
7502;DHT22;3792;47.740;7.606;2023-06-10T06:15:39;21.10;99.90
7502;DHT22;3792;47.740;7.606;2023-06-10T06:18:07;21.10;99.90
7502;DHT22;3792;47.740;7.606;2023-06-10T06:20:34;21.10;99.90
7502;DHT22;3792;47.740;7.606;2023-06-10T06:23:01;21.20;99.90
7502;DHT22;3792;47.740;7.606;2023-06-10T06:25:28;21.20;99.90
7502;DHT22;3792;47.740;7.606;2023-06-10T06:27:55;21.20;99.90
7502;DHT22;3792;47.740;7.606;2023-06-10T06:30:23;21.20;99.90
7502;DHT22;3792;47.740;7.606;2023-06-10T06:32:50;21.40;99.90
7502;DHT22;3792;47.740;7.606;2023-06-10T06:35:18;21.50;99.90
7502;DHT22;3792;47.740;7.606;2023-06-10T06:37:45;21.60;99.90
7502;DHT22;3792;47.740;7.606;2023-06-10T06:40:12;21.70;99.90
7502;DHT22;3792;47.740;7.606;2023-06-10T06:42:39;21.80;99.90
7502;DHT22;3792;47.740;7.606;2023-06-10T06:45:07;21.70;99.90
7502;DHT22;3792;47.740;7.606;2023-06-10T06:47:36;21.70;99.90
7502;DHT22;3792;47.740;7.606;2023-06-10T06:50:03;21.70;99.90
7502;DHT22;3792;47.740;7.606;2023-06-10T06:52:30;21.70;99.90
7502;DHT22;3792;47.740;7.606;2023-06-10T06:54:57;21.80;99.90
7502;DHT22;3792;47.740;7.606;2023-06-10T06:57:25;21.70;99.90
7502;DHT22;3792;47.740;7.606;2023-06-10T06:59:52;21.80;99.90
7502;DHT22;3792;47.740;7.606;2023-06-10T07:02:19;21.90;99.90
7502;DHT22;3792;47.740;7.606;2023-06-10T07:04:47;21.90;99.90
7502;DHT22;3792;47.740;7.606;2023-06-10T07:07:15;22.00;99.90
7502;DHT22;3792;47.740;7.606;2023-06-10T07:09:42;22.00;99.90
7502;DHT22;3792;47.740;7.606;2023-06-10T07:12:10;22.20;99.90
7502;DHT22;3792;47.740;7.606;2023-06-10T07:14:37;22.30;99.90
7502;DHT22;3792;47.740;7.606;2023-06-10T07:17:04;22.40;99.90
7502;DHT22;3792;47.740;7.606;2023-06-10T07:19:31;22.50;99.90
7502;DHT22;3792;47.740;7.606;2023-06-10T07:21:59;22.60;99.90
7502;DHT22;3792;47.740;7.606;2023-06-10T07:24:26;22.60;99.90
7502;DHT22;3792;47.740;7.606;2023-06-10T07:26:53;22.70;99.90
7502;DHT22;3792;47.740;7.606;2023-06-10T07:29:21;22.90;99.90
7502;DHT22;3792;47.740;7.606;2023-06-10T07:31:48;23.00;99.90
7502;DHT22;3792;47.740;7.606;2023-06-10T07:34:15;23.10;99.90
7502;DHT22;3792;47.740;7.606;2023-06-10T07:36:42;23.30;99.90
7502;DHT22;3792;47.740;7.606;2023-06-10T07:39:10;23.40;99.90
7502;DHT22;3792;47.740;7.606;2023-06-10T07:41:37;23.50;99.90
7502;DHT22;3792;47.740;7.606;2023-06-10T07:44:04;23.60;99.90
7502;DHT22;3792;47.740;7.606;2023-06-10T07:46:31;23.60;99.90
7502;DHT22;3792;47.740;7.606;2023-06-10T07:48:58;23.70;99.90
7502;DHT22;3792;47.740;7.606;2023-06-10T07:51:25;23.70;99.90
7502;DHT22;3792;47.740;7.606;2023-06-10T07:53:52;23.80;99.90
7502;DHT22;3792;47.740;7.606;2023-06-10T07:56:21;23.90;99.90
7502;DHT22;3792;47.740;7.606;2023-06-10T07:58:48;23.90;99.90
7502;DHT22;3792;47.740;7.606;2023-06-10T08:01:15;23.80;99.90
7502;DHT22;3792;47.740;7.606;2023-06-10T08:03:42;23.90;99.90
7502;DHT22;3792;47.740;7.606;2023-06-10T08:06:09;24.00;99.90
7502;DHT22;3792;47.740;7.606;2023-06-10T08:08:37;23.90;99.90
7502;DHT22;3792;47.740;7.606;2023-06-10T08:11:07;23.90;99.90
7502;DHT22;3792;47.740;7.606;2023-06-10T08:13:36;23.90;99.90
7502;DHT22;3792;47.740;7.606;2023-06-10T08:16:03;23.90;99.90
7502;DHT22;3792;47.740;7.606;2023-06-10T08:18:30;24.00;99.90
7502;DHT22;3792;47.740;7.606;2023-06-10T08:20:57;24.00;99.90
7502;DHT22;3792;47.740;7.606;2023-06-10T08:23:24;24.20;99.90
7502;DHT22;3792;47.740;7.606;2023-06-10T08:25:51;24.20;99.90
7502;DHT22;3792;47.740;7.606;2023-06-10T08:28:18;24.20;99.90
7502;DHT22;3792;47.740;7.606;2023-06-10T08:30:47;24.10;99.90
7502;DHT22;3792;47.740;7.606;2023-06-10T08:33:14;24.20;99.90
7502;DHT22;3792;47.740;7.606;2023-06-10T08:35:41;24.10;99.90
7502;DHT22;3792;47.740;7.606;2023-06-10T08:38:08;24.20;99.90
7502;DHT22;3792;47.740;7.606;2023-06-10T08:40:35;24.30;99.90
7502;DHT22;3792;47.740;7.606;2023-06-10T08:43:06;24.40;99.90
7502;DHT22;3792;47.740;7.606;2023-06-10T08:45:35;24.40;99.90
7502;DHT22;3792;47.740;7.606;2023-06-10T08:48:05;24.40;99.90
7502;DHT22;3792;47.740;7.606;2023-06-10T08:50:34;24.60;99.90
7502;DHT22;3792;47.740;7.606;2023-06-10T08:53:04;24.60;99.90
7502;DHT22;3792;47.740;7.606;2023-06-10T08:55:33;24.70;99.90
7502;DHT22;3792;47.740;7.606;2023-06-10T08:58:01;24.80;99.90
7502;DHT22;3792;47.740;7.606;2023-06-10T09:00:29;25.00;99.90
7502;DHT22;3792;47.740;7.606;2023-06-10T09:02:57;25.00;99.90
7502;DHT22;3792;47.740;7.606;2023-06-10T09:05:27;25.10;99.90
7502;DHT22;3792;47.740;7.606;2023-06-10T09:07:57;25.20;99.90
7502;DHT22;3792;47.740;7.606;2023-06-10T09:10:24;25.20;99.90
7502;DHT22;3792;47.740;7.606;2023-06-10T09:13:00;25.20;99.90
7502;DHT22;3792;47.740;7.606;2023-06-10T09:15:28;25.20;99.90
7502;DHT22;3792;47.740;7.606;2023-06-10T09:18:01;25.40;99.90
7502;DHT22;3792;47.740;7.606;2023-06-10T09:20:32;25.50;99.80
7502;DHT22;3792;47.740;7.606;2023-06-10T09:23:00;25.70;99.90
7502;DHT22;3792;47.740;7.606;2023-06-10T09:25:35;25.90;99.60
7502;DHT22;3792;47.740;7.606;2023-06-10T09:28:04;25.90;99.50
7502;DHT22;3792;47.740;7.606;2023-06-10T09:30:33;25.80;99.90
7502;DHT22;3792;47.740;7.606;2023-06-10T09:33:02;25.90;99.80
7502;DHT22;3792;47.740;7.606;2023-06-10T09:35:32;26.00;99.70
7502;DHT22;3792;47.740;7.606;2023-06-10T09:38:00;26.00;99.40
7502;DHT22;3792;47.740;7.606;2023-06-10T09:40:28;26.00;99.10
7502;DHT22;3792;47.740;7.606;2023-06-10T09:42:56;26.20;99.70
7502;DHT22;3792;47.740;7.606;2023-06-10T09:45:28;26.30;99.90
7502;DHT22;3792;47.740;7.606;2023-06-10T09:47:56;26.40;99.90
7502;DHT22;3792;47.740;7.606;2023-06-10T09:50:23;26.40;99.80
7502;DHT22;3792;47.740;7.606;2023-06-10T09:52:51;26.60;99.60
7502;DHT22;3792;47.740;7.606;2023-06-10T09:55:22;26.70;98.00
7502;DHT22;3792;47.740;7.606;2023-06-10T09:57:53;26.70;97.30
7502;DHT22;3792;47.740;7.606;2023-06-10T10:00:22;26.80;97.10
7502;DHT22;3792;47.740;7.606;2023-06-10T10:02:50;26.90;97.00
7502;DHT22;3792;47.740;7.606;2023-06-10T10:05:19;27.00;97.90
7502;DHT22;3792;47.740;7.606;2023-06-10T10:07:47;27.00;98.80
7502;DHT22;3792;47.740;7.606;2023-06-10T10:10:17;27.00;96.10
7502;DHT22;3792;47.740;7.606;2023-06-10T10:12:47;27.20;96.00
7502;DHT22;3792;47.740;7.606;2023-06-10T10:15:17;27.10;97.00
7502;DHT22;3792;47.740;7.606;2023-06-10T10:17:48;27.40;95.70
7502;DHT22;3792;47.740;7.606;2023-06-10T10:20:24;27.50;95.00
7502;DHT22;3792;47.740;7.606;2023-06-10T10:22:56;27.50;95.90
7502;DHT22;3792;47.740;7.606;2023-06-10T10:25:28;27.50;94.70
7502;DHT22;3792;47.740;7.606;2023-06-10T10:27:57;27.70;94.90
7502;DHT22;3792;47.740;7.606;2023-06-10T10:30:26;27.60;93.60
7502;DHT22;3792;47.740;7.606;2023-06-10T10:32:58;27.60;94.30
7502;DHT22;3792;47.740;7.606;2023-06-10T10:35:27;27.80;95.20
7502;DHT22;3792;47.740;7.606;2023-06-10T10:37:54;27.80;94.40
7502;DHT22;3792;47.740;7.606;2023-06-10T10:40:22;27.80;93.90
7502;DHT22;3792;47.740;7.606;2023-06-10T10:42:52;27.90;94.50
7502;DHT22;3792;47.740;7.606;2023-06-10T10:45:21;27.80;95.50
7502;DHT22;3792;47.740;7.606;2023-06-10T10:47:53;28.00;95.50
7502;DHT22;3792;47.740;7.606;2023-06-10T10:50:21;27.80;94.70
7502;DHT22;3792;47.740;7.606;2023-06-10T10:52:53;27.90;95.40
7502;DHT22;3792;47.740;7.606;2023-06-10T10:55:21;28.20;94.90
7502;DHT22;3792;47.740;7.606;2023-06-10T10:57:57;28.20;94.70
7502;DHT22;3792;47.740;7.606;2023-06-10T11:00:28;28.20;95.70
7502;DHT22;3792;47.740;7.606;2023-06-10T11:03:04;28.40;94.20
7502;DHT22;3792;47.740;7.606;2023-06-10T11:05:36;28.30;94.10
7502;DHT22;3792;47.740;7.606;2023-06-10T11:08:04;28.50;94.30
7502;DHT22;3792;47.740;7.606;2023-06-10T11:10:33;28.20;94.00
7502;DHT22;3792;47.740;7.606;2023-06-10T11:13:06;28.30;93.20
7502;DHT22;3792;47.740;7.606;2023-06-10T11:15:34;28.40;94.10
7502;DHT22;3792;47.740;7.606;2023-06-10T11:18:22;28.60;93.50
7502;DHT22;3792;47.740;7.606;2023-06-10T11:21:00;28.30;94.30
7502;DHT22;3792;47.740;7.606;2023-06-10T11:23:33;28.40;94.00
7502;DHT22;3792;47.740;7.606;2023-06-10T11:26:30;28.40;92.80
7502;DHT22;3792;47.740;7.606;2023-06-10T11:29:04;28.50;92.90
7502;DHT22;3792;47.740;7.606;2023-06-10T11:31:32;28.70;93.80
7502;DHT22;3792;47.740;7.606;2023-06-10T11:34:01;28.90;93.20
7502;DHT22;3792;47.740;7.606;2023-06-10T11:36:33;28.60;94.60
7502;DHT22;3792;47.740;7.606;2023-06-10T11:39:03;28.20;94.90
7502;DHT22;3792;47.740;7.606;2023-06-10T11:41:31;28.10;94.50
7502;DHT22;3792;47.740;7.606;2023-06-10T11:44:03;27.90;94.40
7502;DHT22;3792;47.740;7.606;2023-06-10T11:46:30;27.70;94.20
7502;DHT22;3792;47.740;7.606;2023-06-10T11:48:59;27.50;94.20
7502;DHT22;3792;47.740;7.606;2023-06-10T11:51:27;27.30;93.80
7502;DHT22;3792;47.740;7.606;2023-06-10T11:53:54;27.20;93.80
7502;DHT22;3792;47.740;7.606;2023-06-10T11:56:22;27.00;95.20
7502;DHT22;3792;47.740;7.606;2023-06-10T11:58:53;27.00;95.80
7502;DHT22;3792;47.740;7.606;2023-06-10T12:01:23;27.00;96.40
7502;DHT22;3792;47.740;7.606;2023-06-10T12:03:57;27.10;96.00
7502;DHT22;3792;47.740;7.606;2023-06-10T12:06:26;27.50;96.40
7502;DHT22;3792;47.740;7.606;2023-06-10T12:08:54;27.80;94.90
7502;DHT22;3792;47.740;7.606;2023-06-10T12:11:22;28.10;94.10
7502;DHT22;3792;47.740;7.606;2023-06-10T12:13:50;28.30;93.90
7502;DHT22;3792;47.740;7.606;2023-06-10T12:16:17;28.80;93.80
7502;DHT22;3792;47.740;7.606;2023-06-10T12:18:46;28.70;93.70
7502;DHT22;3792;47.740;7.606;2023-06-10T12:21:23;28.70;92.20
7502;DHT22;3792;47.740;7.606;2023-06-10T12:24:02;28.60;92.40
7502;DHT22;3792;47.740;7.606;2023-06-10T12:26:37;28.40;92.30
7502;DHT22;3792;47.740;7.606;2023-06-10T12:29:21;28.60;91.80
7502;DHT22;3792;47.740;7.606;2023-06-10T12:31:54;28.90;92.30
7502;DHT22;3792;47.740;7.606;2023-06-10T12:34:30;29.30;93.20
7502;DHT22;3792;47.740;7.606;2023-06-10T12:36:57;29.40;94.00
7502;DHT22;3792;47.740;7.606;2023-06-10T12:39:24;29.30;93.10
7502;DHT22;3792;47.740;7.606;2023-06-10T12:41:52;29.40;92.60
7502;DHT22;3792;47.740;7.606;2023-06-10T12:44:28;29.60;92.60
7502;DHT22;3792;47.740;7.606;2023-06-10T12:46:56;29.60;92.70
7502;DHT22;3792;47.740;7.606;2023-06-10T12:49:23;29.60;92.20
7502;DHT22;3792;47.740;7.606;2023-06-10T12:51:52;29.50;91.50
7502;DHT22;3792;47.740;7.606;2023-06-10T12:54:19;29.20;91.90
7502;DHT22;3792;47.740;7.606;2023-06-10T12:56:46;29.10;91.50
7502;DHT22;3792;47.740;7.606;2023-06-10T12:59:13;29.20;91.40
7502;DHT22;3792;47.740;7.606;2023-06-10T13:01:41;29.70;91.90
7502;DHT22;3792;47.740;7.606;2023-06-10T13:04:08;29.90;90.90
7502;DHT22;3792;47.740;7.606;2023-06-10T13:06:35;30.10;90.20
7502;DHT22;3792;47.740;7.606;2023-06-10T13:09:05;29.90;91.10
7502;DHT22;3792;47.740;7.606;2023-06-10T13:11:34;29.80;91.40
7502;DHT22;3792;47.740;7.606;2023-06-10T13:14:02;30.00;90.90
7502;DHT22;3792;47.740;7.606;2023-06-10T13:16:30;30.00;90.90
7502;DHT22;3792;47.740;7.606;2023-06-10T13:18:57;30.00;88.90
7502;DHT22;3792;47.740;7.606;2023-06-10T13:21:25;30.00;90.10
7502;DHT22;3792;47.740;7.606;2023-06-10T13:23:52;30.30;89.70
7502;DHT22;3792;47.740;7.606;2023-06-10T13:26:20;30.40;87.90
7502;DHT22;3792;47.740;7.606;2023-06-10T13:28:47;30.70;90.20
7502;DHT22;3792;47.740;7.606;2023-06-10T13:31:14;30.70;88.60
7502;DHT22;3792;47.740;7.606;2023-06-10T13:33:41;30.80;90.40
7502;DHT22;3792;47.740;7.606;2023-06-10T13:36:09;30.70;86.90
7502;DHT22;3792;47.740;7.606;2023-06-10T13:38:38;30.40;88.90
7502;DHT22;3792;47.740;7.606;2023-06-10T13:41:05;29.90;88.00
7502;DHT22;3792;47.740;7.606;2023-06-10T13:43:33;29.60;88.80
7502;DHT22;3792;47.740;7.606;2023-06-10T13:46:01;30.00;87.90
7502;DHT22;3792;47.740;7.606;2023-06-10T13:48:28;30.50;87.80
7502;DHT22;3792;47.740;7.606;2023-06-10T13:50:55;30.90;84.70
7502;DHT22;3792;47.740;7.606;2023-06-10T13:53:22;31.00;84.20
7502;DHT22;3792;47.740;7.606;2023-06-10T13:55:49;30.80;86.10
7502;DHT22;3792;47.740;7.606;2023-06-10T13:58:16;30.80;83.00
7502;DHT22;3792;47.740;7.606;2023-06-10T14:00:46;31.00;83.00
7502;DHT22;3792;47.740;7.606;2023-06-10T14:03:13;31.00;81.70
7502;DHT22;3792;47.740;7.606;2023-06-10T14:05:40;31.50;80.60
7502;DHT22;3792;47.740;7.606;2023-06-10T14:08:07;31.70;82.00
7502;DHT22;3792;47.740;7.606;2023-06-10T14:10:34;32.20;79.20
7502;DHT22;3792;47.740;7.606;2023-06-10T14:13:01;32.50;78.50
7502;DHT22;3792;47.740;7.606;2023-06-10T14:15:28;32.10;78.70
7502;DHT22;3792;47.740;7.606;2023-06-10T14:17:57;31.50;78.80
7502;DHT22;3792;47.740;7.606;2023-06-10T14:20:24;30.90;80.20
7502;DHT22;3792;47.740;7.606;2023-06-10T14:22:52;30.50;79.60
7502;DHT22;3792;47.740;7.606;2023-06-10T14:25:19;30.00;80.10
7502;DHT22;3792;47.740;7.606;2023-06-10T14:27:46;30.00;82.90
7502;DHT22;3792;47.740;7.606;2023-06-10T14:30:14;29.90;81.50
7502;DHT22;3792;47.740;7.606;2023-06-10T14:32:41;29.80;83.90
7502;DHT22;3792;47.740;7.606;2023-06-10T14:35:10;29.60;84.90
7502;DHT22;3792;47.740;7.606;2023-06-10T14:37:37;29.30;85.10
7502;DHT22;3792;47.740;7.606;2023-06-10T14:40:05;29.10;87.00
7502;DHT22;3792;47.740;7.606;2023-06-10T14:42:32;28.80;87.80
7502;DHT22;3792;47.740;7.606;2023-06-10T14:44:59;28.50;88.00
7502;DHT22;3792;47.740;7.606;2023-06-10T14:47:26;28.30;88.40
7502;DHT22;3792;47.740;7.606;2023-06-10T14:49:54;28.10;89.20
7502;DHT22;3792;47.740;7.606;2023-06-10T14:52:22;28.10;89.30
7502;DHT22;3792;47.740;7.606;2023-06-10T14:54:49;28.00;89.70
7502;DHT22;3792;47.740;7.606;2023-06-10T14:57:16;28.10;89.40
7502;DHT22;3792;47.740;7.606;2023-06-10T14:59:43;28.50;88.20
7502;DHT22;3792;47.740;7.606;2023-06-10T15:02:11;29.00;87.00
7502;DHT22;3792;47.740;7.606;2023-06-10T15:04:38;29.40;87.20
7502;DHT22;3792;47.740;7.606;2023-06-10T15:07:07;29.60;83.60
7502;DHT22;3792;47.740;7.606;2023-06-10T15:09:37;29.70;83.40
7502;DHT22;3792;47.740;7.606;2023-06-10T15:12:04;29.90;80.60
7502;DHT22;3792;47.740;7.606;2023-06-10T15:14:32;30.40;81.90
7502;DHT22;3792;47.740;7.606;2023-06-10T15:16:59;30.60;81.10
7502;DHT22;3792;47.740;7.606;2023-06-10T15:19:26;30.90;80.60
7502;DHT22;3792;47.740;7.606;2023-06-10T15:21:53;31.20;77.30
7502;DHT22;3792;47.740;7.606;2023-06-10T15:24:20;31.30;77.40
7502;DHT22;3792;47.740;7.606;2023-06-10T15:26:49;31.40;76.70
7502;DHT22;3792;47.740;7.606;2023-06-10T15:29:16;31.70;77.70
7502;DHT22;3792;47.740;7.606;2023-06-10T15:31:43;31.80;77.70
7502;DHT22;3792;47.740;7.606;2023-06-10T15:34:10;31.40;77.40
7502;DHT22;3792;47.740;7.606;2023-06-10T15:36:37;31.20;77.40
7502;DHT22;3792;47.740;7.606;2023-06-10T15:39:05;31.10;77.50
7502;DHT22;3792;47.740;7.606;2023-06-10T15:41:33;31.10;77.60
7502;DHT22;3792;47.740;7.606;2023-06-10T15:44:02;31.00;76.90
7502;DHT22;3792;47.740;7.606;2023-06-10T15:46:29;31.10;76.70
7502;DHT22;3792;47.740;7.606;2023-06-10T15:48:57;31.10;77.90
7502;DHT22;3792;47.740;7.606;2023-06-10T15:51:24;31.20;76.90
7502;DHT22;3792;47.740;7.606;2023-06-10T15:53:51;31.30;76.10
7502;DHT22;3792;47.740;7.606;2023-06-10T15:56:18;31.50;76.60
7502;DHT22;3792;47.740;7.606;2023-06-10T15:58:46;31.40;76.50
7502;DHT22;3792;47.740;7.606;2023-06-10T16:01:15;31.10;74.70
7502;DHT22;3792;47.740;7.606;2023-06-10T16:03:42;31.10;76.90
7502;DHT22;3792;47.740;7.606;2023-06-10T16:06:09;30.80;74.80
7502;DHT22;3792;47.740;7.606;2023-06-10T16:08:36;30.50;76.40